首页
METAR-TAF:

METAR-TAF

机场 :

Greenwood, 密西西比州, 美国

纬度: 33-29-33N, 经度: 090-05-01W, 海拔: 47米

当前天气观测

该预报发布于44分钟前的14:53 UTC
风速7节,风向东转东南
温度 16°C
湿度 55%
气压 1020 hPa
能見度: 16.1公里
天空无云

METAR: KGWO 021453Z AUTO 11007KT 10SM CLR 16/07 A3013 RMK AO2 SLP201 T01560072 50013

时间: 10:37 (15:37 UTC)

预报

该预报发布于4小时和11分钟前的11:26 UTC
预报有效从02日的 12点(UTC)到 03日的 12点(UTC)
风速6节,风向
能見度: 10公里
散云层高于25000英尺

TAF: KGWO 021126Z 0212/0312 10006KT P6SM SCT250

超过4000个机场的气象观测和天气预报(METAR&TAF报告)。

可查询的气象台以黄色和红色小点在地图上表示。

将鼠标移到小点上方,可查看气象台名称。

然后点击查看天气观测和预报。

如需切换地图:点击带黑十字的绿色按钮放大地图;点击带横线的绿色按钮缩小地图;或者点击绿色箭头查看邻近地区的地图。


METAR-TAF: